CheckWX is a tool to help pilots better visualize weather data.  It is not intended as a substitute for an official pre-flight weather briefing.

05:10:46 UTC

KGEG METAR
Spokane International Airport
Spokane, Washington, USA
Current

1 hour ago

KGEG 240353Z 06003KT 7SM BKN065 M05/M07 A3009 RMK AO2 SLP223 T10501067
Observed
Feb-24 @ 03:53 UTC
Wind
  • 060° at 3 KTS
Visibility
7 SM
Flight Rules
VFR
Cloud Levels
  • Broken at 6,500' AGL
Temperature
-5°C / 23°F
Dewpoint
-7°C / 19°F
Humidity
86%
Altimeter
30.09" Hg
Pressure
1022.3 hPa
Previous

2 hours ago

KGEG 240253Z 08003KT 9SM FEW100 M04/M07 A3010 RMK AO2 SLP226 T10441067 56001
Observed
Feb-24 @ 02:53 UTC
Wind
  • 080° at 3 KTS
Visibility
9 SM
Flight Rules
VFR
Cloud Levels
  • Few at 10,000' AGL
Temperature
-4°C / 25°F
Dewpoint
-7°C / 19°F
Humidity
80%
Altimeter
30.1" Hg
Pressure
1022.6 hPa
Previous

3 hours ago

KGEG 240153Z 14004KT 10SM SCT019 SCT090 M03/M07 A3010 RMK AO2 SLP224 T10281067
Observed
Feb-24 @ 01:53 UTC
Wind
  • 140° at 4 KTS
Visibility
10 SM
Flight Rules
VFR
Cloud Levels
  • Scattered at 1,900' AGL
  • Scattered at 9,000' AGL
Temperature
-3°C / 27°F
Dewpoint
-7°C / 19°F
Humidity
74%
Altimeter
30.1" Hg
Pressure
1022.4 hPa